Time;durP1;ratioP1;P1;durP2;ratioP2;P2;SDS_P1;SDS_P2;PMS_P1;PMS_P2;Temp;Humidity;BMP_temperature;BMP_pressure;BME280_temperature;BME280_humidity;BME280_pressure;Samples;Min_cycle;Max_cycle;Signal;HPM_P1;HPM_P2
2022/08/17 00:00:13;;;;;;;64.28;46.63;;;;;;;20.33;100.00;100989.22;5034931;28;20035;-75
2022/08/17 00:02:55;;;;;;;64.20;46.70;;;;;;;20.35;100.00;100984.72;5048220;28;20389;-76
2022/08/17 00:05:20;;;;;;;61.22;46.22;;;;;;;20.34;100.00;100985.63;5052987;28;20496;-75
2022/08/17 00:07:46;;;;;;;60.38;46.42;;;;;;;20.32;100.00;100984.78;5045535;28;20018;-75
2022/08/17 00:10:11;;;;;;;65.68;47.13;;;;;;;20.29;100.00;100984.84;5033750;28;20083;-75
2022/08/17 00:12:41;;;;;;;69.30;49.95;;;;;;;20.27;100.00;100981.34;5041784;28;20119;-73
2022/08/17 00:15:08;;;;;;;66.10;48.50;;;;;;;20.30;100.00;100978.59;5038511;28;20112;-75
2022/08/17 00:17:34;;;;;;;70.97;50.72;;;;;;;20.34;100.00;100974.94;5042849;28;20469;-75
2022/08/17 00:19:59;;;;;;;66.15;48.60;;;;;;;20.43;100.00;100976.53;5051581;28;20032;-75
2022/08/17 00:22:25;;;;;;;69.75;48.38;;;;;;;20.39;100.00;100981.06;5048823;28;20470;-75
2022/08/17 00:24:51;;;;;;;69.25;48.10;;;;;;;20.42;100.00;100981.00;5040389;28;20457;-75
2022/08/17 00:27:17;;;;;;;65.88;48.60;;;;;;;20.49;100.00;100971.91;5053046;28;20166;-75
2022/08/17 00:29:44;;;;;;;67.38;49.40;;;;;;;20.46;100.00;100971.13;5044889;28;20044;-75
2022/08/17 00:32:11;;;;;;;64.97;47.45;;;;;;;20.45;100.00;100966.69;5048044;28;20435;-74
2022/08/17 00:34:37;;;;;;;66.80;48.55;;;;;;;20.48;100.00;100971.97;5035150;28;20115;-75
2022/08/17 00:37:02;;;;;;;68.35;50.10;;;;;;;20.48;100.00;100975.53;5038354;28;20101;-75
2022/08/17 00:39:27;;;;;;;70.20;50.33;;;;;;;20.47;100.00;100971.09;5033555;28;20841;-73
2022/08/17 00:41:53;;;;;;;67.75;50.40;;;;;;;20.43;100.00;100963.16;5052202;28;20032;-75
2022/08/17 00:44:18;;;;;;;68.38;48.67;;;;;;;20.44;100.00;100963.13;5044262;28;20021;-75
2022/08/17 00:46:43;;;;;;;69.07;48.58;;;;;;;20.42;100.00;100964.97;5034370;28;20033;-74
2022/08/17 00:49:11;;;;;;;66.78;49.25;;;;;;;20.35;100.00;100955.34;5045402;28;20446;-74
2022/08/17 00:51:40;;;;;;;69.82;49.03;;;;;;;20.33;100.00;100955.38;5040693;28;20029;-75
2022/08/17 00:54:28;;;;;;;73.20;52.60;;;;;;;20.31;100.00;100956.31;5049151;28;20037;-75
2022/08/17 00:56:59;;;;;;;64.85;48.47;;;;;;;20.36;100.00;100959.75;5036747;28;20045;-75
2022/08/17 00:59:29;;;;;;;69.57;49.67;;;;;;;20.38;100.00;100952.59;5040593;28;20029;-73
2022/08/17 01:01:56;;;;;;;69.45;48.63;;;;;;;20.43;100.00;100950.69;5045510;28;20411;-75
2022/08/17 01:04:23;;;;;;;69.35;48.45;;;;;;;20.45;100.00;100954.19;5040601;28;20361;-75
2022/08/17 01:06:50;;;;;;;67.53;47.40;;;;;;;20.49;100.00;100949.66;5042381;28;20037;-74
2022/08/17 01:09:17;;;;;;;61.72;47.70;;;;;;;20.57;100.00;100952.16;5044990;28;20388;-75
2022/08/17 01:11:44;;;;;;;69.20;50.75;;;;;;;20.55;100.00;100947.72;5038115;28;20052;-75
2022/08/17 01:14:10;;;;;;;68.53;49.75;;;;;;;20.53;100.00;100954.91;5038585;28;20037;-74
2022/08/17 01:16:36;;;;;;;69.28;49.92;;;;;;;20.52;100.00;100950.50;5044716;28;20040;-75
2022/08/17 01:19:19;;;;;;;68.53;48.92;;;;;;;20.53;100.00;100956.69;5039062;28;20026;-75
2022/08/17 01:22:13;;;;;;;66.50;48.08;;;;;;;20.42;100.00;100954.28;5036107;28;20021;-75
2022/08/17 01:24:44;;;;;;;64.22;48.50;;;;;;;20.41;100.00;100962.34;5041510;28;20033;-76
2022/08/17 01:27:12;;;;;;;66.35;49.53;;;;;;;20.34;100.00;100961.59;5061343;28;20025;-75
2022/08/17 01:29:40;;;;;;;71.60;48.83;;;;;;;20.34;100.00;100961.59;5046781;28;20026;-73
2022/08/17 01:32:07;;;;;;;68.15;48.80;;;;;;;20.32;100.00;100966.97;5041399;28;20033;-75
2022/08/17 01:34:32;;;;;;;62.13;45.22;;;;;;;20.34;100.00;100967.78;5037286;28;20033;-75
2022/08/17 01:36:58;;;;;;;67.57;47.38;;;;;;;20.36;100.00;100971.31;5039196;28;20030;-75
2022/08/17 01:39:23;;;;;;;62.35;45.72;;;;;;;20.38;100.00;100974.84;5037121;28;20056;-76
2022/08/17 01:41:52;;;;;;;62.20;43.45;;;;;;;20.33;100.00;101006.16;5040443;28;20033;-74
2022/08/17 01:44:19;;;;;;;57.00;41.85;;;;;;;20.24;100.00;101046.41;5056283;28;20036;-75
2022/08/17 01:46:45;;;;;;;57.72;43.47;;;;;;;20.15;100.00;101047.47;5043244;28;20070;-75
2022/08/17 01:49:11;;;;;;;58.78;43.25;;;;;;;20.19;100.00;101041.16;5048413;28;20104;-75
2022/08/17 01:51:37;;;;;;;62.28;45.00;;;;;;;20.16;100.00;101059.94;5043964;28;20436;-73
2022/08/17 01:54:07;;;;;;;65.00;46.53;;;;;;;20.25;100.00;101057.97;5047378;28;20036;-75
2022/08/17 01:56:35;;;;;;;65.60;46.28;;;;;;;20.29;100.00;101071.22;5049802;28;20128;-74
2022/08/17 01:59:01;;;;;;;40.28;31.70;;;;;;;20.24;100.00;101065.13;5050818;28;20527;-74
2022/08/17 02:01:31;;;;;;;42.45;29.27;;;;;;;20.11;100.00;101055.59;5038127;28;20032;-74
2022/08/17 02:03:57;;;;;;;34.42;25.83;;;;;;;19.93;100.00;101040.81;5048789;28;20055;-76
2022/08/17 02:06:23;;;;;;;45.20;27.75;;;;;;;19.89;100.00;101045.31;5039423;28;20046;-75
2022/08/17 02:08:48;;;;;;;47.22;26.00;;;;;;;19.83;100.00;101056.09;5042348;28;20431;-75
2022/08/17 02:11:16;;;;;;;44.58;26.20;;;;;;;19.79;100.00;101055.25;5038873;28;20029;-75
2022/08/17 02:13:43;;;;;;;32.85;21.33;;;;;;;19.64;100.00;101056.44;5039043;28;20104;-75
2022/08/17 02:16:09;;;;;;;34.55;21.05;;;;;;;19.49;100.00;101067.34;5037873;28;20552;-75
2022/08/17 02:18:34;;;;;;;40.17;19.58;;;;;;;19.37;100.00;101073.75;5036817;28;20100;-75
2022/08/17 02:20:59;;;;;;;38.08;21.55;;;;;;;19.29;100.00;101078.34;5035471;28;20474;-75
2022/08/17 02:23:29;;;;;;;36.22;21.63;;;;;;;19.17;100.00;101079.44;5044488;28;20036;-75
2022/08/17 02:25:57;;;;;;;45.05;24.88;;;;;;;19.11;100.00;101060.84;5046456;28;20025;-75
2022/08/17 02:28:22;;;;;;;46.72;28.05;;;;;;;18.96;100.00;101045.97;5054424;28;20358;-74
2022/08/17 02:30:48;;;;;;;44.47;30.25;;;;;;;18.91;100.00;101037.13;5036531;28;20025;-74
2022/08/17 02:33:14;;;;;;;42.28;27.98;;;;;;;18.85;100.00;101033.63;5038989;28;20025;-74
2022/08/17 02:35:41;;;;;;;39.22;27.90;;;;;;;18.86;100.00;101026.53;5035792;28;20032;-74
2022/08/17 02:38:08;;;;;;;36.42;24.77;;;;;;;18.82;100.00;101036.34;5036403;28;20033;-74
2022/08/17 02:40:34;;;;;;;32.13;23.40;;;;;;;18.79;100.00;101043.53;5046998;28;20094;-73
2022/08/17 02:43:00;;;;;;;35.95;25.45;;;;;;;18.78;100.00;101037.28;5036855;28;20044;-75
2022/08/17 02:45:26;;;;;;;34.03;23.05;;;;;;;18.82;100.00;101047.00;5050848;28;20025;-74
2022/08/17 02:47:52;;;;;;;33.85;21.58;;;;;;;18.83;100.00;101034.56;5036813;28;20097;-74
2022/08/17 02:50:20;;;;;;;32.00;19.00;;;;;;;18.84;100.00;101026.56;5036899;28;20113;-75
2022/08/17 02:52:46;;;;;;;26.10;16.67;;;;;;;18.85;100.00;101011.41;5036170;28;20036;-74
2022/08/17 02:55:39;;;;;;;27.77;16.83;;;;;;;18.85;100.00;101003.44;5044026;28;20029;-73
2022/08/17 02:58:06;;;;;;;25.15;14.82;;;;;;;18.83;100.00;101010.59;5050217;28;20048;-74
2022/08/17 03:00:35;;;;;;;23.55;14.85;;;;;;;18.78;100.00;101018.63;5038127;28;20677;-75
2022/08/17 03:03:03;;;;;;;22.80;14.02;;;;;;;18.83;100.00;101029.25;5047928;28;20037;-73
2022/08/17 03:05:31;;;;;;;17.42;13.45;;;;;;;18.79;100.00;101035.53;5034700;28;20091;-75
2022/08/17 03:07:57;;;;;;;18.90;12.65;;;;;;;18.70;100.00;101033.84;5042675;28;20108;-75
2022/08/17 03:10:24;;;;;;;21.55;13.77;;;;;;;18.68;100.00;101033.88;5040035;28;20039;-73
2022/08/17 03:12:52;;;;;;;20.73;13.70;;;;;;;18.69;100.00;101038.31;5040100;28;20041;-74
2022/08/17 03:15:32;;;;;;;22.80;14.70;;;;;;;18.73;100.00;101023.13;5042413;28;20052;-73
2022/08/17 03:17:58;;;;;;;25.15;15.55;;;;;;;18.78;100.00;101023.97;5034923;28;20496;-74
2022/08/17 03:20:25;;;;;;;22.50;16.27;;;;;;;18.82;100.00;101033.69;5034664;28;20025;-74
2022/08/17 03:22:53;;;;;;;27.58;17.23;;;;;;;18.87;100.00;101028.28;5050992;28;20082;-76
2022/08/17 03:25:23;;;;;;;30.00;17.75;;;;;;;18.86;100.00;101027.38;5049872;28;20096;-74
2022/08/17 03:27:49;;;;;;;32.22;18.67;;;;;;;18.87;100.00;101009.63;5034569;28;20031;-74
2022/08/17 03:30:14;;;;;;;31.38;19.83;;;;;;;18.96;100.00;101009.50;5035031;28;20089;-74
2022/08/17 03:32:46;;;;;;;33.08;18.63;;;;;;;18.92;100.00;101012.25;5037933;28;20029;-74
2022/08/17 03:35:15;;;;;;;36.03;19.08;;;;;;;18.92;100.00;101017.56;5045255;28;20138;-74
2022/08/17 03:37:41;;;;;;;32.30;19.70;;;;;;;18.97;100.00;101016.59;5034242;28;20079;-74
2022/08/17 03:40:07;;;;;;;26.27;16.02;;;;;;;18.97;100.00;101027.25;5044753;28;20432;-74
2022/08/17 03:42:35;;;;;;;25.77;17.23;;;;;;;19.00;100.00;101021.91;5034651;28;20045;-73
2022/08/17 03:45:01;;;;;;;23.92;16.85;;;;;;;19.02;100.00;101027.22;5038652;28;20033;-73
2022/08/17 03:58:24;;;;;;;31.52;20.48;;;;;;;19.01;100.00;101014.78;5042969;28;20053;-74
2022/08/17 04:00:50;;;;;;;38.03;21.35;;;;;;;19.01;100.00;101017.44;5046518;28;20556;-74
2022/08/17 04:03:16;;;;;;;35.60;21.58;;;;;;;19.00;100.00;101018.34;5039577;28;20033;-74
2022/08/17 04:05:42;;;;;;;35.75;23.40;;;;;;;19.04;100.00;101009.38;5034120;28;20042;-76
2022/08/17 04:08:08;;;;;;;39.45;22.60;;;;;;;19.07;100.00;101006.66;5041046;28;20033;-73
2022/08/17 04:10:34;;;;;;;36.97;22.52;;;;;;;19.06;100.00;101004.03;5035256;28;20018;-74
2022/08/17 04:13:00;;;;;;;41.13;23.65;;;;;;;19.05;100.00;100992.47;5040441;28;20526;-74
2022/08/17 04:15:26;;;;;;;30.83;23.23;;;;;;;19.04;100.00;101001.38;5045449;28;20033;-74
2022/08/17 04:17:51;;;;;;;39.53;25.95;;;;;;;19.01;100.00;100986.31;5033689;28;20056;-73
2022/08/17 04:20:19;;;;;;;38.83;24.80;;;;;;;19.00;100.00;100983.66;5043407;28;20045;-74
2022/08/17 04:23:08;;;;;;;38.22;26.98;;;;;;;18.98;100.00;100980.16;5033880;28;20025;-74
2022/08/17 04:25:37;;;;;;;43.60;26.60;;;;;;;18.98;100.00;100982.84;5049221;28;20029;-73
2022/08/17 04:28:04;;;;;;;41.55;26.83;;;;;;;18.98;100.00;100982.84;5038779;28;20034;-73
2022/08/17 04:30:32;;;;;;;49.65;28.70;;;;;;;18.87;100.00;100986.50;5038502;28;20031;-74
2022/08/17 04:33:06;;;;;;;49.85;28.85;;;;;;;18.92;100.00;100985.59;5036877;28;20075;-74
2022/08/17 04:35:39;;;;;;;49.33;30.85;;;;;;;18.94;100.00;100984.66;5036884;28;20028;-73
2022/08/17 04:38:05;;;;;;;49.80;29.48;;;;;;;18.92;100.00;100981.13;5047487;28;20491;-74
2022/08/17 04:43:18;;;;;;;48.67;30.65;;;;;;;18.93;100.00;100987.34;5042490;28;20059;-73
2022/08/17 04:45:50;;;;;;;50.78;32.22;;;;;;;18.94;100.00;100975.78;5034640;28;20029;-75
2022/08/17 04:48:15;;;;;;;47.17;31.85;;;;;;;18.97;100.00;100973.06;5033352;28;20073;-74
2022/08/17 04:50:44;;;;;;;51.42;32.85;;;;;;;18.95;100.00;100972.19;5038324;28;20053;-73
2022/08/17 04:53:10;;;;;;;40.58;29.70;;;;;;;18.97;100.00;100978.41;5041651;28;20031;-73
2022/08/17 04:55:35;;;;;;;49.30;32.22;;;;;;;19.01;100.00;100974.78;5045405;28;20132;-73
2022/08/17 04:58:01;;;;;;;47.53;32.55;;;;;;;19.00;100.00;100973.91;5050264;28;20063;-73
2022/08/17 05:00:26;;;;;;;45.15;31.50;;;;;;;19.01;100.00;100974.78;5039524;28;20091;-73
2022/08/17 05:02:53;;;;;;;50.22;33.42;;;;;;;19.05;100.00;100973.81;5052488;28;20520;-73
2022/08/17 05:05:21;;;;;;;48.80;33.53;;;;;;;19.07;100.00;100974.66;5041331;28;20031;-73
2022/08/17 05:07:49;;;;;;;51.22;32.28;;;;;;;19.07;100.00;100977.31;5037428;28;20033;-73
2022/08/17 05:10:15;;;;;;;49.13;32.10;;;;;;;19.10;100.00;100979.97;5042833;28;20026;-74
2022/08/17 05:12:40;;;;;;;46.05;31.50;;;;;;;19.11;100.00;100981.69;5038586;28;20100;-72
2022/08/17 05:15:10;;;;;;;49.40;31.70;;;;;;;19.13;100.00;100984.38;5039605;28;20033;-73
2022/08/17 05:17:35;;;;;;;41.78;30.58;;;;;;;19.16;100.00;100982.50;5045611;28;20127;-74
2022/08/17 05:20:01;;;;;;;45.17;32.08;;;;;;;19.17;100.00;100976.28;5045289;28;20088;-73
2022/08/17 05:22:26;;;;;;;38.95;30.67;;;;;;;19.18;100.00;100978.03;5042560;28;20477;-73
2022/08/17 05:24:52;;;;;;;41.50;31.17;;;;;;;19.21;100.00;100979.78;5033337;28;20032;-74
2022/08/17 05:27:17;;;;;;;45.58;31.35;;;;;;;19.16;100.00;100979.84;5036648;28;20036;-74
2022/08/17 05:29:43;;;;;;;40.35;30.60;;;;;;;19.19;100.00;100982.47;5051199;28;20075;-74
2022/08/17 05:32:09;;;;;;;48.30;31.73;;;;;;;19.18;100.00;100980.72;5051181;28;20430;-74
2022/08/17 05:34:35;;;;;;;42.70;33.33;;;;;;;19.19;100.00;100989.59;5040745;28;20112;-74
2022/08/17 05:37:01;;;;;;;43.53;31.60;;;;;;;19.20;100.00;100991.34;5035167;28;20060;-74
2022/08/17 05:39:26;;;;;;;50.85;32.72;;;;;;;19.18;100.00;100995.81;5051991;28;20024;-74
2022/08/17 05:41:51;;;;;;;42.38;32.97;;;;;;;19.19;100.00;100995.81;5051682;28;20029;-72
2022/08/17 05:44:17;;;;;;;49.13;31.58;;;;;;;19.20;100.00;100991.34;5044984;28;20067;-73
2022/08/17 05:46:47;;;;;;;50.78;33.20;;;;;;;19.24;100.00;100997.53;5034574;28;20465;-72
2022/08/17 05:49:15;;;;;;;46.42;31.88;;;;;;;19.24;100.00;100997.53;5042175;28;20033;-74
2022/08/17 05:52:02;;;;;;;46.33;32.08;;;;;;;19.25;100.00;101004.59;5034743;28;20389;-74
2022/08/17 05:54:53;;;;;;;49.35;33.25;;;;;;;19.27;100.00;101013.47;5033904;28;20060;-74
2022/08/17 05:57:40;;;;;;;51.35;35.42;;;;;;;19.29;100.00;101011.63;5047257;28;20043;-73
2022/08/17 06:00:30;;;;;;;55.08;36.00;;;;;;;19.32;100.00;101014.28;5047976;28;20037;-74
2022/08/17 06:03:01;;;;;;;58.90;36.33;;;;;;;19.34;100.00;101024.03;5035430;28;20039;-73
2022/08/17 06:05:49;;;;;;;50.05;35.38;;;;;;;19.35;100.00;101022.22;5045640;28;20425;-73
2022/08/17 06:08:29;;;;;;;49.10;34.78;;;;;;;19.35;100.00;101030.22;5041461;28;20036;-73
2022/08/17 06:11:13;;;;;;;53.30;36.05;;;;;;;19.39;100.00;101031.94;5040199;28;20025;-71
2022/08/17 06:14:17;;;;;;;61.58;36.85;;;;;;;19.36;100.00;101022.19;5055541;28;20033;-73
2022/08/17 06:16:48;;;;;;;60.70;36.97;;;;;;;19.39;100.00;101013.25;5051098;28;20457;-74
2022/08/17 06:19:30;;;;;;;57.13;38.05;;;;;;;19.44;100.00;101018.50;5044860;28;20388;-72
2022/08/17 06:21:57;;;;;;;59.38;36.80;;;;;;;19.48;100.00;101018.44;5056293;28;20029;-73
2022/08/17 06:24:45;;;;;;;62.63;39.70;;;;;;;19.55;100.00;101024.56;5042587;28;20386;-73
2022/08/17 06:27:37;;;;;;;58.60;38.40;;;;;;;19.58;100.00;101018.28;5047516;28;20047;-74
2022/08/17 06:30:56;;;;;;;52.83;35.70;;;;;;;19.58;100.00;101016.47;5043771;28;20025;-74
2022/08/17 06:33:32;;;;;;;56.10;39.28;;;;;;;19.67;100.00;101031.47;5030797;28;20131;-74
2022/08/17 06:36:16;;;;;;;53.22;37.60;;;;;;;19.73;100.00;101023.31;5035849;28;20111;-74
2022/08/17 06:39:18;;;;;;;51.28;38.05;;;;;;;19.79;100.00;101028.56;5036775;28;20040;-74
2022/08/17 06:41:55;;;;;;;50.90;37.97;;;;;;;19.87;100.00;101025.75;5041464;28;20472;-73
2022/08/17 06:44:46;;;;;;;54.15;34.90;;;;;;;19.91;100.00;101027.47;5040726;28;20052;-72
2022/08/17 06:47:35;;;;;;;46.60;32.72;;;;;;;19.96;100.00;101024.72;5038687;28;20033;-74
2022/08/17 06:50:09;;;;;;;39.63;26.98;;;;;;;19.98;100.00;101023.78;5058907;28;20054;-72
2022/08/17 06:52:47;;;;;;;33.65;25.92;;;;;;;19.96;100.00;101036.28;5042747;28;20504;-71
2022/08/17 06:55:35;;;;;;;33.65;25.65;;;;;;;19.94;100.00;101034.53;5041734;28;20083;-76
2022/08/17 06:58:06;;;;;;;31.02;24.95;;;;;;;19.96;100.00;101032.72;5046746;28;20038;-72
2022/08/17 07:00:40;;;;;;;33.35;23.48;;;;;;;19.98;100.00;101034.47;5050923;28;20514;-72
2022/08/17 07:03:36;;;;;;;26.92;22.17;;;;;;;19.96;100.00;101041.63;5066989;28;20031;-73
2022/08/17 07:06:17;;;;;;;30.67;21.35;;;;;;;19.91;100.00;101053.28;5047111;28;20076;-71
2022/08/17 07:08:57;;;;;;;25.98;21.10;;;;;;;19.95;100.00;101049.66;5035571;28;20029;-72
2022/08/17 07:11:30;;;;;;;26.33;20.83;;;;;;;19.91;100.00;101058.63;5044233;28;20365;-72
2022/08/17 07:14:37;;;;;;;29.90;21.83;;;;;;;19.90;100.00;101054.19;5046941;28;20089;-72
2022/08/17 07:17:09;;;;;;;24.83;19.95;;;;;;;19.92;100.00;101055.06;5036014;28;20366;-72
2022/08/17 07:19:39;;;;;;;25.98;20.23;;;;;;;19.92;100.00;101063.94;5034115;28;20083;-72
2022/08/17 07:22:26;;;;;;;22.45;18.88;;;;;;;19.84;100.00;101064.09;5046939;28;20023;-72
2022/08/17 07:24:59;;;;;;;24.73;19.73;;;;;;;19.80;100.00;101067.72;5044404;28;20032;-72
2022/08/17 07:27:51;;;;;;;25.45;19.35;;;;;;;19.82;100.00;101075.72;5048350;28;20120;-73
2022/08/17 07:30:24;;;;;;;24.77;19.65;;;;;;;19.82;100.00;101081.94;5062462;28;20035;-72
2022/08/17 07:32:57;;;;;;;24.83;20.17;;;;;;;19.85;100.00;101086.34;5047008;28;20025;-72
2022/08/17 07:35:28;;;;;;;;;;;;;;;19.83;100.00;101089.06;5038824;28;20032;-73
2022/08/17 07:38:09;;;;;;;26.08;20.70;;;;;;;19.78;100.00;101087.31;5048018;28;19912;-72
2022/08/17 07:40:45;;;;;;;31.95;21.77;;;;;;;19.72;100.00;101093.66;5050060;28;20029;-72
2022/08/17 07:43:10;;;;;;;31.77;23.35;;;;;;;19.71;100.00;101100.78;5052009;28;20506;-72
2022/08/17 07:48:37;;;;;;;28.08;21.38;;;;;;;19.77;100.00;101090.91;5046641;28;20035;-71
2022/08/17 07:51:30;;;;;;;25.95;21.77;;;;;;;19.77;100.00;101081.09;5051566;28;20065;-72
2022/08/17 07:54:01;;;;;;;28.45;21.55;;;;;;;19.85;100.00;101084.53;5049203;28;20032;-72
2022/08/17 07:56:45;;;;;;;27.20;21.95;;;;;;;19.86;100.00;101072.09;5052937;28;20063;-73
2022/08/17 07:59:26;;;;;;;27.83;21.55;;;;;;;19.90;100.00;101070.22;5033320;28;20025;-73
2022/08/17 08:01:59;;;;;;;26.58;21.38;;;;;;;19.90;100.00;101070.22;5042272;28;20035;-72
2022/08/17 08:04:28;;;;;;;;;;;;;;;19.93;100.00;101079.06;5038898;28;20029;-72
2022/08/17 08:06:58;;;;;;;24.77;18.85;;;;;;;19.90;100.00;101084.47;5035043;28;20332;-73
2022/08/17 08:09:37;;;;;;;23.48;18.95;;;;;;;19.89;100.00;101090.72;5033929;28;20053;-73
2022/08/17 08:12:32;;;;;;;24.15;20.08;;;;;;;19.88;100.00;101088.94;5035747;28;20095;-73
2022/08/17 08:15:24;;;;;;;24.85;19.23;;;;;;;19.94;100.00;101085.28;5045347;28;20029;-72
2022/08/17 08:17:58;;;;;;;23.58;18.98;;;;;;;20.02;100.00;101089.59;5031008;28;20128;-73
2022/08/17 08:20:39;;;;;;;25.13;18.63;;;;;;;20.18;100.00;101087.50;5033041;28;20027;-73
2022/08/17 08:23:19;;;;;;;24.13;18.77;;;;;;;20.32;100.00;101097.03;5044717;28;20388;-73
2022/08/17 08:26:07;;;;;;;20.08;17.70;;;;;;;20.39;100.00;101098.69;5050614;28;20031;-73
2022/08/17 08:28:43;;;;;;;20.98;16.63;;;;;;;20.43;100.00;101103.06;5053478;28;20354;-73
2022/08/17 08:31:23;;;;;;;19.05;15.25;;;;;;;20.42;100.00;101109.31;5045933;28;20025;-73
2022/08/17 08:33:55;;;;;;;16.75;14.68;;;;;;;20.46;100.00;101104.78;5038353;28;20083;-73
2022/08/17 08:36:38;;;;;;;18.58;14.30;;;;;;;20.48;100.00;101109.19;5043838;28;20110;-73
2022/08/17 08:39:14;;;;;;;;;;;;;;;20.54;100.00;101116.19;5036938;28;20033;-73
2022/08/17 08:41:57;;;;;;;15.95;13.00;;;;;;;20.56;100.00;101117.03;5033017;28;19917;-73
2022/08/17 08:44:32;;;;;;;15.40;12.93;;;;;;;20.60;100.00;101120.53;5034635;28;20040;-74
2022/08/17 08:47:19;;;;;;;15.82;13.75;;;;;;;20.63;100.00;101117.78;5033305;28;20033;-72
2022/08/17 08:49:59;;;;;;;19.00;13.60;;;;;;;20.62;100.00;101121.38;5047537;28;20033;-73
2022/08/17 08:52:33;;;;;;;18.05;13.65;;;;;;;20.63;100.00;101120.47;5046787;28;20492;-73
2022/08/17 08:55:09;;;;;;;19.65;14.00;;;;;;;20.52;100.00;101121.59;5038106;28;20246;-73
2022/08/17 08:58:03;;;;;;;20.27;15.27;;;;;;;20.48;100.00;101122.56;5047835;28;20029;-73
2022/08/17 09:00:34;;;;;;;18.58;16.58;;;;;;;20.45;100.00;101125.28;5048901;28;20048;-73
2022/08/17 09:03:29;;;;;;;19.73;15.85;;;;;;;20.38;100.00;101134.34;5037637;28;20021;-73
2022/08/17 09:06:24;;;;;;;21.25;15.15;;;;;;;20.19;100.00;101149.84;5052851;28;20057;-73
2022/08/17 09:09:08;;;;;;;22.20;16.38;;;;;;;20.16;100.00;101157.91;5044376;28;20025;-73
2022/08/17 09:12:18;;;;;;;17.65;15.23;;;;;;;20.16;100.00;101165.94;5034240;28;20028;-73
2022/08/17 09:14:55;;;;;;;22.05;15.50;;;;;;;20.16;100.00;101165.94;5047112;28;20037;-73
2022/08/17 09:17:34;;;;;;;19.95;14.48;;;;;;;20.16;100.00;101172.16;5036103;28;20108;-73
2022/08/17 09:20:15;;;;;;;25.52;16.17;;;;;;;20.14;100.00;101176.63;5052687;28;20489;-72
2022/08/17 09:22:47;;;;;;;17.88;13.93;;;;;;;20.06;100.00;101186.56;5044320;28;20120;-72
2022/08/17 09:25:20;;;;;;;17.75;14.60;;;;;;;19.93;100.00;101185.03;5045956;28;20025;-72
2022/08/17 09:27:52;;;;;;;;;;;;;;;19.70;100.00;101173.78;5073400;28;20088;-72
2022/08/17 09:30:18;;;;;;;24.55;16.15;;;;;;;19.61;100.00;101179.25;5052154;28;19916;-73
2022/08/17 09:32:48;;;;;;;17.17;14.40;;;;;;;19.59;100.00;101170.41;5033869;28;20029;-72
2022/08/17 09:35:13;;;;;;;28.17;19.63;;;;;;;19.62;100.00;101173.03;5032918;28;20029;-72
2022/08/17 09:37:50;;;;;;;29.23;21.30;;;;;;;19.66;100.00;101181.88;5034787;28;20033;-72
2022/08/17 09:40:27;;;;;;;26.55;20.63;;;;;;;19.72;100.00;101179.09;5052627;28;20643;-73
2022/08/17 09:43:18;;;;;;;25.00;19.30;;;;;;;19.75;100.00;101192.41;5046709;28;20055;-72
2022/08/17 09:45:48;;;;;;;27.70;19.85;;;;;;;19.71;100.00;101190.69;5041604;28;20021;-72
2022/08/17 09:48:18;;;;;;;25.98;18.95;;;;;;;19.74;100.00;101195.06;5051939;28;20040;-72
2022/08/17 09:50:54;;;;;;;28.08;19.17;;;;;;;19.74;100.00;101195.06;5045100;28;20041;-72
2022/08/17 09:53:21;;;;;;;22.10;16.83;;;;;;;19.74;100.00;101190.63;5056309;28;20029;-72
2022/08/17 09:55:58;;;;;;;27.23;19.48;;;;;;;19.71;100.00;101188.91;5056321;28;20528;-72
2022/08/17 09:59:05;;;;;;;25.05;19.75;;;;;;;19.75;100.00;101187.06;5045124;28;20438;-73
2022/08/17 10:01:41;;;;;;;28.08;21.40;;;;;;;19.76;100.00;101183.47;5046456;28;20061;-73
2022/08/17 10:04:14;;;;;;;31.55;22.65;;;;;;;19.77;100.00;101184.38;5043929;28;20031;-72
2022/08/17 10:06:49;;;;;;;31.10;20.70;;;;;;;19.75;100.00;101179.06;5037415;28;20128;-72
2022/08/17 10:09:35;;;;;;;26.05;20.73;;;;;;;19.80;100.00;101186.97;5036088;28;20393;-72
2022/08/17 10:12:41;;;;;;;25.80;20.20;;;;;;;19.86;100.00;101179.78;5053554;28;20377;-72
2022/08/17 10:15:21;;;;;;;27.98;21.85;;;;;;;19.91;100.00;101177.03;5047278;28;20037;-73
2022/08/17 10:18:24;;;;;;;26.23;20.80;;;;;;;19.91;100.00;101178.81;5036313;28;20059;-73
2022/08/17 10:27:20;;;;;;;24.92;19.55;;;;;;;20.21;100.00;101174.72;5052741;28;20063;-73
2022/08/17 10:29:48;;;;;;;21.67;18.25;;;;;;;20.29;100.00;101178.13;5041202;28;20040;-73
2022/08/17 10:32:26;;;;;;;19.38;16.20;;;;;;;20.28;100.00;101181.75;5036140;28;20029;-72
2022/08/17 10:34:59;;;;;;;18.60;15.45;;;;;;;20.32;100.00;101177.19;5043719;28;20064;-74
2022/08/17 10:37:25;;;;;;;15.13;13.40;;;;;;;20.42;100.00;101181.47;5039394;28;20087;-74
2022/08/17 10:40:12;;;;;;;14.77;12.77;;;;;;;20.49;100.00;101182.25;5055168;28;20365;-72
2022/08/17 10:42:57;;;;;;;15.95;13.50;;;;;;;20.48;100.00;101178.69;5035719;28;20428;-72
2022/08/17 10:46:07;;;;;;;16.67;13.82;;;;;;;20.52;100.00;101177.72;5054049;28;20037;-72
2022/08/17 10:48:35;;;;;;;16.15;14.00;;;;;;;20.45;100.00;101176.06;5043110;28;20053;-73
2022/08/17 10:51:06;;;;;;;15.43;13.57;;;;;;;20.49;100.00;101180.44;5043293;28;20108;-72
2022/08/17 10:53:31;;;;;;;16.02;14.32;;;;;;;20.51;100.00;101181.31;5042652;28;20068;-73
2022/08/17 10:56:12;;;;;;;16.40;13.80;;;;;;;20.55;100.00;101177.66;5043008;28;20115;-73
2022/08/17 10:58:45;;;;;;;14.93;13.27;;;;;;;20.53;100.00;101168.75;5039465;28;20284;-73
2022/08/17 11:01:11;;;;;;;17.38;13.95;;;;;;;20.48;100.00;101168.00;5051174;28;20017;-73
2022/08/17 11:03:51;;;;;;;18.65;15.43;;;;;;;20.52;100.00;101160.78;5041684;28;20036;-73
2022/08/17 11:06:37;;;;;;;17.25;15.30;;;;;;;20.33;100.00;101154.91;5049555;28;20045;-73
2022/08/17 11:09:18;;;;;;;23.00;16.80;;;;;;;20.37;100.00;101149.50;5054760;28;20069;-73
2022/08/17 11:11:51;;;;;;;22.60;17.23;;;;;;;20.38;100.00;101155.72;5048536;28;20028;-73
2022/08/17 11:14:24;;;;;;;;;;;;;;;20.38;100.00;101155.72;5035718;28;20036;-73
2022/08/17 11:17:16;;;;;;;22.08;16.85;;;;;;;20.47;100.00;101165.34;5035225;28;20444;-73
2022/08/17 11:20:13;;;;;;;24.55;17.38;;;;;;;20.37;100.00;101162.88;5035186;28;20021;-72
2022/08/17 11:23:13;;;;;;;23.45;16.83;;;;;;;20.45;100.00;101175.19;5034539;28;20385;-74
2022/08/17 11:25:49;;;;;;;22.02;18.15;;;;;;;20.51;100.00;101175.06;5039010;28;20123;-72
2022/08/17 11:28:20;;;;;;;24.77;20.63;;;;;;;20.49;100.00;101177.75;5046444;28;20029;-73
2022/08/17 11:30:50;;;;;;;24.20;20.15;;;;;;;20.51;100.00;101177.72;5048698;28;20372;-73
2022/08/17 11:33:30;;;;;;;25.77;20.48;;;;;;;20.54;100.00;101188.38;5045151;28;20025;-73
2022/08/17 11:36:07;;;;;;;27.30;21.77;;;;;;;20.56;100.00;101202.59;5042336;28;20037;-73
2022/08/17 11:38:42;;;;;;;27.05;19.90;;;;;;;20.52;100.00;101199.09;5046020;28;20107;-72
2022/08/17 11:41:27;;;;;;;23.50;19.60;;;;;;;20.53;100.00;101205.31;5041200;28;20060;-74
2022/08/17 11:44:20;;;;;;;26.00;19.73;;;;;;;20.53;100.00;101213.34;5047906;28;20466;-74
2022/08/17 11:53:36;;;;;;;32.67;22.08;;;;;;;20.35;100.00;101217.25;5053497;28;20083;-76
2022/08/17 11:56:09;;;;;;;31.17;22.80;;;;;;;20.34;100.00;101212.81;5044672;28;20106;-76
2022/08/17 11:58:40;;;;;;;31.90;23.92;;;;;;;20.37;100.00;101218.09;5066953;28;20028;-75
2022/08/17 12:01:09;;;;;;;31.20;24.50;;;;;;;20.38;100.00;101214.50;5058914;28;20107;-76